Joplin, Missouri
Current Conditions -  °F | °C
As of 5:53 AM on Sunday 25 Jan 2015 (Local Time) from KJLN Reporting Station
Overcast Overcast  
Wind Chill: 45°   Ceiling: 4800
Heat Index: 49°   Visibility: 10mi
Dew Point: 37°   Wind: 8mph
Humidity: 64%   Direction: 300°WNW
Pressure: 29.72"   Gusts: NA
Location:  37.09°N, 94.51°W
Report Text: KJLN 251153Z 30007KT 10SM BKN048 OVC070 09/03 A2972 RMK AO2 SLP063 T00940028 10100 20089 50001
Loading
Personal Weather Stations






























Interactive Weather Map New forecast layout! Learn more

10-Day Weather Forecast

Advertisements
Track Severe Weather on mobile